createdAt,value
2023-01-17T00:00:30.013Z,-0.70
2023-01-17T00:02:56.746Z,-0.60
2023-01-17T00:08:47.189Z,-0.60
2023-01-17T00:11:13.977Z,-0.60
2023-01-17T00:13:40.968Z,-0.60
2023-01-17T00:16:07.729Z,-0.60
2023-01-17T00:18:34.580Z,-0.70
2023-01-17T00:21:20.205Z,-0.70
2023-01-17T00:24:05.577Z,-0.70
2023-01-17T00:26:32.373Z,-0.70
2023-01-17T00:28:59.052Z,-0.70
2023-01-17T00:31:25.717Z,-0.80
2023-01-17T00:33:52.375Z,-0.80
2023-01-17T00:36:19.034Z,-0.80
2023-01-17T00:38:45.733Z,-0.90
2023-01-17T00:41:12.442Z,-0.90
2023-01-17T00:43:58.147Z,-0.90
2023-01-17T00:46:43.434Z,-0.90
2023-01-17T00:49:28.924Z,-0.90
2023-01-17T00:52:14.455Z,-1.00
2023-01-17T00:54:59.957Z,-1.00
2023-01-17T00:57:45.540Z,-1.00
2023-01-17T01:00:31.159Z,-1.00
2023-01-17T01:03:16.727Z,-1.00
2023-01-17T01:06:02.163Z,-1.00
2023-01-17T01:08:47.743Z,-1.00
2023-01-17T01:11:33.025Z,-1.00
2023-01-17T01:14:18.491Z,-1.00
2023-01-17T01:17:04.009Z,-1.00
2023-01-17T01:19:49.461Z,-1.00
2023-01-17T01:22:34.874Z,-1.00
2023-01-17T01:25:20.316Z,-1.00
2023-01-17T01:28:05.758Z,-1.10
2023-01-17T01:30:50.999Z,-1.10
2023-01-17T01:33:20.464Z,-1.10
2023-01-17T01:35:47.233Z,-1.10
2023-01-17T01:38:13.972Z,-1.10
2023-01-17T01:40:40.758Z,-1.10
2023-01-17T01:43:07.495Z,-1.20
2023-01-17T01:45:34.264Z,-1.20
2023-01-17T01:48:00.977Z,-1.10
2023-01-17T01:50:27.661Z,-1.10
2023-01-17T01:52:54.337Z,-1.20
2023-01-17T01:55:21.051Z,-1.20
2023-01-17T01:57:47.996Z,-1.20
2023-01-17T02:00:14.732Z,-1.20
2023-01-17T02:02:41.472Z,-1.30
2023-01-17T02:05:08.206Z,-1.30
2023-01-17T02:07:34.925Z,-1.20
2023-01-17T02:10:01.647Z,-1.20
2023-01-17T02:12:28.354Z,-1.20
2023-01-17T02:14:55.620Z,-1.20
2023-01-17T02:17:22.382Z,-1.30
2023-01-17T02:19:49.120Z,-1.30
2023-01-17T02:22:15.849Z,-1.30
2023-01-17T02:24:42.549Z,-1.30
2023-01-17T02:27:09.211Z,-1.40
2023-01-17T02:29:35.943Z,-1.40
2023-01-17T02:32:03.306Z,-1.40
2023-01-17T02:34:30.035Z,-1.40
2023-01-17T02:36:57.815Z,-1.40
2023-01-17T02:39:24.567Z,-1.50
2023-01-17T02:41:51.266Z,-1.50
2023-01-17T02:44:17.944Z,-1.50
2023-01-17T02:46:44.621Z,-1.50
2023-01-17T02:49:11.316Z,-1.40
2023-01-17T02:51:39.029Z,-1.50
2023-01-17T02:54:05.789Z,-1.50
2023-01-17T02:56:32.741Z,-1.50
2023-01-17T02:58:59.518Z,-1.60
2023-01-17T03:01:26.572Z,-1.60
2023-01-17T03:03:53.425Z,-1.60
2023-01-17T03:06:20.104Z,-1.60
2023-01-17T03:08:46.820Z,-1.60
2023-01-17T03:11:13.546Z,-1.60
2023-01-17T03:13:41.280Z,-1.60
2023-01-17T03:16:08.311Z,-1.60
2023-01-17T03:18:35.069Z,-1.60
2023-01-17T03:21:01.811Z,-1.60
2023-01-17T03:23:28.663Z,-1.60
2023-01-17T03:25:55.413Z,-1.60
2023-01-17T03:28:22.127Z,-1.50
2023-01-17T03:30:48.861Z,-1.50
2023-01-17T03:33:15.647Z,-1.50
2023-01-17T03:35:42.307Z,-1.50
2023-01-17T03:38:08.995Z,-1.50
2023-01-17T03:40:35.808Z,-1.50
2023-01-17T03:43:02.491Z,-1.50
2023-01-17T03:45:29.280Z,-1.50
2023-01-17T03:47:57.840Z,-1.60
2023-01-17T03:50:24.579Z,-1.60
2023-01-17T03:52:51.367Z,-1.60
2023-01-17T03:55:18.070Z,-1.60
2023-01-17T03:57:44.764Z,-1.60
2023-01-17T04:00:11.496Z,-1.60
2023-01-17T04:02:38.246Z,-1.70
2023-01-17T04:05:05.268Z,-1.70
2023-01-17T04:07:31.997Z,-1.70
2023-01-17T04:09:58.676Z,-1.70
2023-01-17T04:12:25.396Z,-1.70
2023-01-17T04:14:52.143Z,-1.70
2023-01-17T04:17:18.845Z,-1.70
2023-01-17T04:19:45.534Z,-1.70
2023-01-17T04:22:12.247Z,-1.70
2023-01-17T04:24:38.974Z,-1.70
2023-01-17T04:27:05.629Z,-1.70
2023-01-17T04:29:32.313Z,-1.70
2023-01-17T04:31:59.042Z,-1.70
2023-01-17T04:34:26.294Z,-1.70
2023-01-17T04:36:53.080Z,-1.70
2023-01-17T04:39:19.835Z,-1.70
2023-01-17T04:41:46.509Z,-1.80
2023-01-17T04:44:13.238Z,-1.80
2023-01-17T04:46:39.934Z,-1.80
2023-01-17T04:49:06.617Z,-1.80
2023-01-17T04:51:33.339Z,-1.90
2023-01-17T04:54:00.093Z,-1.90
2023-01-17T04:56:26.831Z,-1.90
2023-01-17T04:58:53.527Z,-1.90
2023-01-17T05:01:20.431Z,-2.00
2023-01-17T05:03:47.210Z,-2.00
2023-01-17T05:06:13.912Z,-2.00
2023-01-17T05:08:40.618Z,-2.10
2023-01-17T05:11:07.425Z,-2.10
2023-01-17T05:13:34.126Z,-2.10
2023-01-17T05:16:00.867Z,-2.10
2023-01-17T05:18:27.679Z,-2.10
2023-01-17T05:20:54.437Z,-2.10
2023-01-17T05:23:21.171Z,-2.20
2023-01-17T05:25:47.863Z,-2.20
2023-01-17T05:28:14.619Z,-2.30
2023-01-17T05:30:41.454Z,-2.30
2023-01-17T05:33:10.213Z,-2.20
2023-01-17T05:35:37.109Z,-2.30
2023-01-17T05:38:03.860Z,-2.20
2023-01-17T05:40:30.969Z,-2.20
2023-01-17T05:42:57.776Z,-2.20
2023-01-17T05:45:24.469Z,-2.20
2023-01-17T05:47:51.153Z,-2.30
2023-01-17T05:50:17.857Z,-2.30
2023-01-17T05:52:44.513Z,-2.30
2023-01-17T05:55:11.257Z,-2.30
2023-01-17T05:57:38.010Z,-2.30
2023-01-17T06:00:04.910Z,-2.30
2023-01-17T06:02:31.771Z,-2.30
2023-01-17T06:04:58.461Z,-2.30
2023-01-17T06:07:25.158Z,-2.30
2023-01-17T06:09:51.887Z,-2.40
2023-01-17T06:12:18.557Z,-2.30
2023-01-17T06:14:45.295Z,-2.30
2023-01-17T06:17:11.991Z,-2.40
2023-01-17T06:19:38.685Z,-2.40
2023-01-17T06:22:05.383Z,-2.40
2023-01-17T06:24:32.102Z,-2.30
2023-01-17T06:26:58.779Z,-2.30
2023-01-17T06:29:25.469Z,-2.30
2023-01-17T06:31:52.148Z,-2.40
2023-01-17T06:34:18.941Z,-2.40
2023-01-17T06:36:45.640Z,-2.40
2023-01-17T06:39:14.870Z,-2.40
2023-01-17T06:41:41.828Z,-2.50
2023-01-17T06:44:08.549Z,-2.50
2023-01-17T06:46:35.294Z,-2.50
2023-01-17T06:49:02.095Z,-2.50
2023-01-17T06:51:28.797Z,-2.50
2023-01-17T06:53:55.598Z,-2.50
2023-01-17T06:56:22.399Z,-2.50
2023-01-17T06:58:49.119Z,-2.50
2023-01-17T07:01:15.904Z,-2.60
2023-01-17T07:03:42.827Z,-2.60
2023-01-17T07:06:09.607Z,-2.60
2023-01-17T07:08:36.365Z,-2.60
2023-01-17T07:11:03.131Z,-2.60
2023-01-17T07:13:30.630Z,-2.60
2023-01-17T07:15:57.399Z,-2.60
2023-01-17T07:18:24.239Z,-2.60
2023-01-17T07:20:51.000Z,-2.60
2023-01-17T07:23:17.720Z,-2.60
2023-01-17T07:25:44.369Z,-2.60
2023-01-17T07:28:11.065Z,-2.60
2023-01-17T07:30:37.825Z,-2.70
2023-01-17T07:33:04.631Z,-2.70
2023-01-17T07:35:31.371Z,-2.60
2023-01-17T07:37:58.072Z,-2.70
2023-01-17T07:40:25.427Z,-2.70
2023-01-17T07:42:52.216Z,-2.60
2023-01-17T07:45:19.905Z,-2.70
2023-01-17T07:47:47.153Z,-2.60
2023-01-17T07:50:13.951Z,-2.60
2023-01-17T07:52:40.628Z,-2.50
2023-01-17T07:55:07.379Z,-2.60
2023-01-17T07:57:34.149Z,-2.50
2023-01-17T08:00:00.908Z,-2.60
2023-01-17T08:02:27.704Z,-2.60
2023-01-17T08:04:54.559Z,-2.60
2023-01-17T08:07:21.287Z,-2.60
2023-01-17T08:09:50.161Z,-2.60
2023-01-17T08:12:16.918Z,-2.70
2023-01-17T08:14:43.775Z,-2.70
2023-01-17T08:17:10.445Z,-2.70
2023-01-17T08:19:37.168Z,-2.70
2023-01-17T08:22:03.942Z,-2.70
2023-01-17T08:24:30.689Z,-2.70
2023-01-17T08:26:57.400Z,-2.60
2023-01-17T08:29:24.150Z,-2.60
2023-01-17T08:31:50.881Z,-2.50
2023-01-17T08:34:17.693Z,-2.50
2023-01-17T08:36:44.961Z,-2.50
2023-01-17T08:39:14.484Z,-2.50
2023-01-17T08:41:41.242Z,-2.50
2023-01-17T08:44:08.049Z,-2.40
2023-01-17T08:46:34.795Z,-2.40
2023-01-17T08:49:02.837Z,-2.40
2023-01-17T08:51:29.915Z,-2.30
2023-01-17T08:53:56.671Z,-2.30
2023-01-17T08:56:27.405Z,-2.30
2023-01-17T08:58:54.135Z,-2.30
2023-01-17T09:01:21.016Z,-2.20
2023-01-17T09:03:47.790Z,-2.20
2023-01-17T09:06:14.496Z,-2.10
2023-01-17T09:08:41.224Z,-2.10
2023-01-17T09:11:08.046Z,-2.10
2023-01-17T09:13:34.732Z,-2.10
2023-01-17T09:16:01.548Z,-2.00
2023-01-17T09:18:28.345Z,-2.00
2023-01-17T09:20:55.297Z,-2.00
2023-01-17T09:23:22.066Z,-2.00
2023-01-17T09:25:48.780Z,-2.00
2023-01-17T09:28:15.509Z,-1.90
2023-01-17T09:30:42.326Z,-1.90
2023-01-17T09:33:09.109Z,-1.80
2023-01-17T09:35:35.958Z,-1.80
2023-01-17T09:38:02.695Z,-1.80
2023-01-17T09:40:29.425Z,-1.70
2023-01-17T09:42:58.099Z,-1.70
2023-01-17T09:45:25.591Z,-1.70
2023-01-17T09:47:52.566Z,-1.70
2023-01-17T09:50:19.283Z,-1.60
2023-01-17T09:52:46.099Z,-1.60
2023-01-17T09:55:12.820Z,-1.50
2023-01-17T09:57:39.678Z,-1.60
2023-01-17T10:00:06.585Z,-1.60
2023-01-17T10:02:33.375Z,-1.60
2023-01-17T10:05:00.272Z,-1.50
2023-01-17T10:07:26.981Z,-1.50
2023-01-17T10:09:53.693Z,-1.40
2023-01-17T10:12:20.434Z,-1.30
2023-01-17T10:14:47.149Z,-1.20
2023-01-17T10:17:16.179Z,-1.20
2023-01-17T10:19:42.921Z,-1.20
2023-01-17T10:22:10.269Z,-1.20
2023-01-17T10:24:37.007Z,-1.20
2023-01-17T10:27:03.697Z,-1.10
2023-01-17T10:29:30.507Z,-1.20
2023-01-17T10:31:57.309Z,-1.10
2023-01-17T10:34:24.053Z,-1.10
2023-01-17T10:36:50.787Z,-1.00
2023-01-17T10:39:17.511Z,-1.00
2023-01-17T10:41:44.225Z,-0.90
2023-01-17T10:44:10.925Z,-0.90
2023-01-17T10:46:37.691Z,-0.90
2023-01-17T10:49:04.455Z,-0.80
2023-01-17T10:51:31.168Z,-0.90
2023-01-17T10:53:58.437Z,-0.80
2023-01-17T10:56:26.225Z,-0.80
2023-01-17T10:58:52.976Z,-0.80
2023-01-17T11:01:19.825Z,-0.80
2023-01-17T11:03:46.727Z,-0.70
2023-01-17T11:06:13.961Z,-0.80
2023-01-17T11:08:40.686Z,-0.80
2023-01-17T11:11:07.392Z,-0.70
2023-01-17T11:13:37.257Z,-0.60
2023-01-17T11:16:05.954Z,-0.50
2023-01-17T11:18:32.761Z,-0.50
2023-01-17T11:21:00.578Z,-0.60
2023-01-17T11:23:27.627Z,-0.50
2023-01-17T11:25:55.158Z,-0.50
2023-01-17T11:28:21.922Z,-0.50
2023-01-17T11:30:48.710Z,-0.50
2023-01-17T11:33:15.421Z,-0.50
2023-01-17T11:35:42.147Z,-0.40
2023-01-17T11:38:08.910Z,-0.40
2023-01-17T11:40:35.595Z,-0.40
2023-01-17T11:43:02.406Z,-0.30
2023-01-17T11:45:29.138Z,-0.30
2023-01-17T11:47:55.973Z,-0.20
2023-01-17T11:50:22.695Z,-0.10
2023-01-17T11:52:49.352Z,0.00
2023-01-17T11:55:16.108Z,0.00
2023-01-17T11:57:42.831Z,0.10
2023-01-17T12:00:09.529Z,0.20
2023-01-17T12:02:38.617Z,0.20
2023-01-17T12:05:05.384Z,0.30
2023-01-17T12:07:32.137Z,0.40
2023-01-17T12:09:58.826Z,0.40
2023-01-17T12:12:44.443Z,0.40
2023-01-17T12:15:11.180Z,0.50
2023-01-17T12:17:37.887Z,0.50
2023-01-17T12:20:11.633Z,0.50
2023-01-17T12:22:38.395Z,0.60
2023-01-17T12:25:05.117Z,0.60
2023-01-17T12:27:31.846Z,0.60
2023-01-17T12:29:58.894Z,0.60
2023-01-17T12:32:25.692Z,0.70
2023-01-17T12:34:52.571Z,0.70
2023-01-17T12:37:19.336Z,0.70
2023-01-17T12:39:46.068Z,0.70
2023-01-17T12:42:13.554Z,0.70
2023-01-17T12:44:40.233Z,0.70
2023-01-17T12:47:07.382Z,0.70
2023-01-17T12:49:34.081Z,0.70
2023-01-17T12:52:00.817Z,0.70
2023-01-17T12:54:27.670Z,0.70
2023-01-17T12:56:54.399Z,0.80
2023-01-17T12:59:21.144Z,0.70
2023-01-17T13:01:57.366Z,0.70
2023-01-17T13:04:24.345Z,0.70
2023-01-17T13:06:51.083Z,0.70
2023-01-17T13:09:17.896Z,0.70
2023-01-17T13:11:46.623Z,0.80
2023-01-17T13:14:13.363Z,0.80
2023-01-17T13:16:42.029Z,0.80
2023-01-17T13:19:09.143Z,0.80
2023-01-17T13:21:35.920Z,0.80
2023-01-17T13:24:02.664Z,0.90
2023-01-17T13:26:29.524Z,0.90
2023-01-17T13:28:56.265Z,0.90
2023-01-17T13:31:23.020Z,1.00
2023-01-17T13:33:49.866Z,1.00
2023-01-17T13:36:16.808Z,1.00
2023-01-17T13:38:43.550Z,1.00
2023-01-17T13:41:10.287Z,1.00
2023-01-17T13:43:36.992Z,1.10
2023-01-17T13:46:03.897Z,1.10
2023-01-17T13:48:30.841Z,1.10
2023-01-17T13:50:57.545Z,1.10
2023-01-17T13:53:24.289Z,1.10
2023-01-17T13:55:51.026Z,1.10
2023-01-17T13:58:18.425Z,1.10
2023-01-17T14:00:45.186Z,1.10
2023-01-17T14:03:12.090Z,1.10
2023-01-17T14:05:38.843Z,1.10
2023-01-17T14:08:05.594Z,1.20
2023-01-17T14:10:32.301Z,1.20
2023-01-17T14:12:59.070Z,1.20
2023-01-17T14:15:29.894Z,1.20
2023-01-17T14:17:56.707Z,1.20
2023-01-17T14:20:23.488Z,1.20
2023-01-17T14:22:50.230Z,1.20
2023-01-17T14:25:19.766Z,1.20
2023-01-17T14:27:46.513Z,1.20
2023-01-17T14:30:14.174Z,1.20
2023-01-17T14:32:40.937Z,1.20
2023-01-17T14:35:09.226Z,1.20
2023-01-17T14:37:36.062Z,1.20
2023-01-17T14:40:02.826Z,1.20
2023-01-17T14:42:29.715Z,1.20
2023-01-17T14:44:56.410Z,1.20
2023-01-17T14:47:23.158Z,1.20
2023-01-17T14:49:49.937Z,1.20
2023-01-17T14:52:16.730Z,1.20
2023-01-17T14:54:43.451Z,1.20
2023-01-17T14:57:10.150Z,1.20
2023-01-17T14:59:36.843Z,1.20
2023-01-17T15:02:07.998Z,1.20
2023-01-17T15:04:39.509Z,1.20
2023-01-17T15:07:06.820Z,1.20
2023-01-17T15:09:33.505Z,1.20
2023-01-17T15:12:00.183Z,1.10
2023-01-17T15:14:27.776Z,1.10
2023-01-17T15:16:54.667Z,1.10
2023-01-17T15:19:21.873Z,1.10
2023-01-17T15:21:50.422Z,1.00
2023-01-17T15:24:17.405Z,1.00
2023-01-17T15:26:44.170Z,1.00
2023-01-17T15:29:10.918Z,0.90
2023-01-17T15:31:37.948Z,0.90
2023-01-17T15:34:04.651Z,0.90
2023-01-17T15:36:34.438Z,0.80
2023-01-17T15:39:01.579Z,0.80
2023-01-17T15:41:28.308Z,0.80
2023-01-17T15:43:57.706Z,0.80
2023-01-17T15:46:25.741Z,0.70
2023-01-17T15:48:52.597Z,0.70
2023-01-17T15:51:19.381Z,0.70
2023-01-17T15:53:46.162Z,0.70
2023-01-17T15:56:12.945Z,0.60
2023-01-17T15:58:39.706Z,0.60
2023-01-17T16:01:06.510Z,0.60
2023-01-17T16:03:33.324Z,0.60
2023-01-17T16:06:00.350Z,0.50
2023-01-17T16:08:27.152Z,0.50
2023-01-17T16:10:54.012Z,0.50
2023-01-17T16:13:21.779Z,0.50
2023-01-17T16:15:48.724Z,0.50
2023-01-17T16:18:15.521Z,0.40
2023-01-17T16:20:42.251Z,0.40
2023-01-17T16:23:09.016Z,0.40
2023-01-17T16:25:35.722Z,0.30
2023-01-17T16:28:02.489Z,0.30
2023-01-17T16:30:29.258Z,0.20
2023-01-17T16:32:56.949Z,0.30
2023-01-17T16:35:23.720Z,0.20
2023-01-17T16:37:51.052Z,0.20
2023-01-17T16:40:18.069Z,0.10
2023-01-17T16:42:44.810Z,0.10
2023-01-17T16:45:11.504Z,0.10
2023-01-17T16:47:38.260Z,0.10
2023-01-17T16:50:04.980Z,0.10
2023-01-17T16:52:31.672Z,0.00
2023-01-17T16:54:58.770Z,0.00
2023-01-17T16:57:25.531Z,0.00
2023-01-17T16:59:53.237Z,0.00
2023-01-17T17:02:20.090Z,0.00
2023-01-17T17:04:46.888Z,0.00
2023-01-17T17:07:13.556Z,-0.10
2023-01-17T17:09:40.274Z,-0.10
2023-01-17T17:12:06.973Z,-0.10
2023-01-17T17:14:33.691Z,-0.10
2023-01-17T17:17:03.151Z,-0.10
2023-01-17T17:19:30.001Z,-0.10
2023-01-17T17:21:56.756Z,-0.10
2023-01-17T17:24:23.477Z,-0.20
2023-01-17T17:26:50.171Z,-0.20
2023-01-17T17:29:17.026Z,-0.20
2023-01-17T17:31:43.881Z,-0.20
2023-01-17T17:34:10.626Z,-0.20
2023-01-17T17:36:37.368Z,-0.20
2023-01-17T17:39:04.422Z,-0.20
2023-01-17T17:41:31.223Z,-0.30
2023-01-17T17:43:57.955Z,-0.30
2023-01-17T17:46:24.770Z,-0.30
2023-01-17T17:48:51.573Z,-0.30
2023-01-17T17:51:18.274Z,-0.30
2023-01-17T17:53:45.002Z,-0.30
2023-01-17T17:56:11.746Z,-0.30
2023-01-17T17:58:39.447Z,-0.30
2023-01-17T18:01:06.263Z,-0.30
2023-01-17T18:03:33.051Z,-0.40
2023-01-17T18:05:59.816Z,-0.40
2023-01-17T18:08:26.641Z,-0.40
2023-01-17T18:10:53.333Z,-0.40
2023-01-17T18:13:20.070Z,-0.40
2023-01-17T18:15:46.782Z,-0.50
2023-01-17T18:18:13.488Z,-0.50
2023-01-17T18:20:40.240Z,-0.50
2023-01-17T18:23:06.985Z,-0.40
2023-01-17T18:25:35.622Z,-0.50
2023-01-17T18:28:03.071Z,-0.50
2023-01-17T18:30:33.013Z,-0.40
2023-01-17T18:32:59.725Z,-0.40
2023-01-17T18:35:26.440Z,-0.40
2023-01-17T18:37:53.384Z,-0.40
2023-01-17T18:40:20.282Z,-0.40
2023-01-17T18:42:46.990Z,-0.50
2023-01-17T18:45:13.705Z,-0.50
2023-01-17T18:47:40.423Z,-0.50
2023-01-17T18:50:07.229Z,-0.50
2023-01-17T18:52:35.147Z,-0.50
2023-01-17T18:55:01.928Z,-0.50
2023-01-17T18:57:28.708Z,-0.50
2023-01-17T18:59:55.549Z,-0.50
2023-01-17T19:02:22.282Z,-0.60
2023-01-17T19:04:48.968Z,-0.50
2023-01-17T19:07:15.800Z,-0.60
2023-01-17T19:09:44.213Z,-0.60
2023-01-17T19:12:11.004Z,-0.60
2023-01-17T19:14:37.793Z,-0.60
2023-01-17T19:17:04.618Z,-0.60
2023-01-17T19:19:31.339Z,-0.60
2023-01-17T19:21:58.072Z,-0.60
2023-01-17T19:24:24.851Z,-0.60
2023-01-17T19:26:53.323Z,-0.60
2023-01-17T19:29:20.160Z,-0.60
2023-01-17T19:31:46.936Z,-0.60
2023-01-17T19:34:14.695Z,-0.70
2023-01-17T19:36:41.529Z,-0.70
2023-01-17T19:39:09.526Z,-0.70
2023-01-17T19:41:36.321Z,-0.70
2023-01-17T19:44:03.302Z,-0.60
2023-01-17T19:46:30.048Z,-0.70
2023-01-17T19:48:56.785Z,-0.70
2023-01-17T19:51:23.512Z,-0.70
2023-01-17T19:53:50.267Z,-0.70
2023-01-17T19:56:17.004Z,-0.70
2023-01-17T19:58:43.735Z,-0.70
2023-01-17T20:01:10.519Z,-0.80
2023-01-17T20:03:37.746Z,-0.80
2023-01-17T20:06:04.463Z,-0.80
2023-01-17T20:08:31.211Z,-0.80
2023-01-17T20:10:57.982Z,-0.80
2023-01-17T20:13:25.279Z,-0.80
2023-01-17T20:15:51.959Z,-0.80
2023-01-17T20:18:18.660Z,-0.80
2023-01-17T20:20:56.584Z,-0.80
2023-01-17T20:23:23.933Z,-0.80
2023-01-17T20:25:50.653Z,-0.80
2023-01-17T20:28:17.373Z,-0.90
2023-01-17T20:30:45.652Z,-0.90
2023-01-17T20:33:14.980Z,-0.90
2023-01-17T20:35:41.688Z,-0.90
2023-01-17T20:38:10.527Z,-0.90
2023-01-17T20:40:37.256Z,-0.90
2023-01-17T20:43:04.096Z,-1.00
2023-01-17T20:45:30.914Z,-1.00
2023-01-17T20:47:57.976Z,-1.00
2023-01-17T20:50:24.790Z,-1.00
2023-01-17T20:52:51.526Z,-1.10
2023-01-17T20:55:18.241Z,-1.10
2023-01-17T20:57:44.928Z,-1.10
2023-01-17T21:00:12.404Z,-1.10
2023-01-17T21:02:39.206Z,-1.10
2023-01-17T21:05:06.022Z,-1.10
2023-01-17T21:07:32.745Z,-1.10
2023-01-17T21:09:59.491Z,-1.10
2023-01-17T21:12:26.197Z,-1.10
2023-01-17T21:14:53.704Z,-1.10
2023-01-17T21:17:20.573Z,-1.20
2023-01-17T21:19:47.300Z,-1.20
2023-01-17T21:22:16.696Z,-1.10
2023-01-17T21:24:43.507Z,-1.10
2023-01-17T21:27:12.352Z,-1.10
2023-01-17T21:29:39.065Z,-1.10
2023-01-17T21:32:05.869Z,-1.10
2023-01-17T21:34:34.638Z,-1.10
2023-01-17T21:37:01.410Z,-1.20
2023-01-17T21:39:29.264Z,-1.20
2023-01-17T21:41:56.016Z,-1.20
2023-01-17T21:44:22.977Z,-1.20
2023-01-17T21:46:54.175Z,-1.20
2023-01-17T21:49:21.987Z,-1.20
2023-01-17T21:51:54.598Z,-1.30
2023-01-17T21:54:41.288Z,-1.20
2023-01-17T21:57:26.456Z,-1.30
2023-01-17T21:59:53.207Z,-1.30
2023-01-17T22:02:19.929Z,-1.30
2023-01-17T22:04:46.702Z,-1.30
2023-01-17T22:07:13.454Z,-1.30
2023-01-17T22:09:40.546Z,-1.30
2023-01-17T22:12:07.319Z,-1.30
2023-01-17T22:14:34.128Z,-1.30
2023-01-17T22:17:00.877Z,-1.30
2023-01-17T22:19:27.632Z,-1.30
2023-01-17T22:21:54.328Z,-1.30
2023-01-17T22:24:22.244Z,-1.30
2023-01-17T22:26:48.964Z,-1.40
2023-01-17T22:29:19.052Z,-1.40
2023-01-17T22:31:45.782Z,-1.40
2023-01-17T22:34:13.950Z,-1.40
2023-01-17T22:36:40.706Z,-1.50
2023-01-17T22:39:07.511Z,-1.50
2023-01-17T22:41:35.248Z,-1.50
2023-01-17T22:44:08.543Z,-1.50
2023-01-17T22:46:37.209Z,-1.50
2023-01-17T22:49:04.115Z,-1.50
2023-01-17T22:51:30.896Z,-1.50
2023-01-17T22:53:57.673Z,-1.50
2023-01-17T22:56:24.501Z,-1.40
2023-01-17T22:58:51.226Z,-1.40
2023-01-17T23:01:18.003Z,-1.50
2023-01-17T23:03:44.784Z,-1.50
2023-01-17T23:06:11.582Z,-1.50
2023-01-17T23:08:38.395Z,-1.50
2023-01-17T23:11:23.738Z,-1.50
2023-01-17T23:13:50.501Z,-1.60
2023-01-17T23:16:35.692Z,-1.60
2023-01-17T23:19:21.274Z,-1.60
2023-01-17T23:22:06.687Z,-1.60
2023-01-17T23:24:33.408Z,-1.60
2023-01-17T23:27:18.648Z,-1.60
2023-01-17T23:29:45.524Z,-1.60
2023-01-17T23:32:12.471Z,-1.60
2023-01-17T23:34:39.169Z,-1.60
2023-01-17T23:37:05.882Z,-1.60
2023-01-17T23:39:32.568Z,-1.70
2023-01-17T23:42:17.864Z,-1.70
2023-01-17T23:44:44.585Z,-1.70
2023-01-17T23:47:11.300Z,-1.70
2023-01-17T23:49:37.995Z,-1.70
2023-01-17T23:52:04.697Z,-1.70
2023-01-17T23:54:32.104Z,-1.70
2023-01-17T23:56:58.816Z,-1.70
2023-01-17T23:59:25.483Z,-1.70
